Time;durP1;ratioP1;P1;durP2;ratioP2;P2;SDS_P1;SDS_P2;PMS_P1;PMS_P2;Temp;Humidity;BMP_temperature;BMP_pressure;BME280_temperature;BME280_humidity;BME280_pressure;Samples;Min_cycle;Max_cycle;Signal;HPM_P1;HPM_P2
2023/09/27 00:00:46;;;;;;;27.10;20.50;;;;;;;22.35;81.96;100605.21;109735;1250;58987;-54
2023/09/27 00:03:13;;;;;;;24.40;20.50;;;;;;;22.35;81.86;100604.60;109726;1250;74441;-54
2023/09/27 00:05:39;;;;;;;22.80;18.50;;;;;;;22.32;82.19;100606.05;109716;1250;68553;-54
2023/09/27 00:08:07;;;;;;;25.30;20.30;;;;;;;22.39;81.75;100604.40;109697;1251;72671;-54
2023/09/27 00:10:33;;;;;;;25.10;19.80;;;;;;;22.44;81.44;100604.39;109364;1250;61818;-54
2023/09/27 00:13:00;;;;;;;28.70;19.90;;;;;;;22.36;81.78;100601.42;109648;1251;59046;-54
2023/09/27 00:15:27;;;;;;;22.10;17.40;;;;;;;22.31;81.98;100603.66;109409;1254;74654;-56
2023/09/27 00:17:54;;;;;;;22.10;17.60;;;;;;;22.33;82.22;100599.56;109550;1251;68578;-54
2023/09/27 00:20:21;;;;;;;26.30;18.90;;;;;;;22.25;82.40;100595.78;109519;1252;72578;-54
2023/09/27 00:22:48;;;;;;;29.00;19.50;;;;;;;22.26;82.42;100595.73;109576;1252;60811;-54
2023/09/27 00:25:15;;;;;;;25.90;20.00;;;;;;;22.31;82.27;100594.68;109600;1251;60172;-54
2023/09/27 00:27:42;;;;;;;25.00;19.90;;;;;;;22.19;83.09;100593.71;109532;1252;73482;-54
2023/09/27 00:30:09;;;;;;;19.70;16.80;;;;;;;22.05;83.78;100589.02;109568;1251;68463;-54
2023/09/27 00:32:36;;;;;;;30.40;20.30;;;;;;;21.96;84.12;100595.62;109539;1251;72672;-54
2023/09/27 00:35:04;;;;;;;23.40;19.00;;;;;;;21.99;84.20;100596.80;109485;1252;60711;-54
2023/09/27 00:37:34;;;;;;;31.40;20.80;;;;;;;22.12;83.64;100590.15;109551;1252;59016;-54
2023/09/27 00:40:00;;;;;;;27.90;19.20;;;;;;;22.17;83.09;100588.36;109526;1252;74538;-54
2023/09/27 00:42:27;;;;;;;23.60;19.20;;;;;;;22.26;82.73;100587.80;109591;1252;68515;-55
2023/09/27 00:44:54;;;;;;;28.10;20.40;;;;;;;22.31;82.26;100588.27;109569;1251;72547;-54
2023/09/27 00:47:21;;;;;;;29.50;20.90;;;;;;;22.27;82.82;100590.78;109190;1254;61811;-54
2023/09/27 00:49:47;;;;;;;25.30;19.70;;;;;;;22.29;83.09;100589.88;109477;1251;58984;-54
2023/09/27 00:52:16;;;;;;;27.90;20.80;;;;;;;22.29;82.95;100586.59;109594;1251;74433;-55
2023/09/27 00:54:42;;;;;;;30.50;19.50;;;;;;;22.25;83.22;100583.11;109526;1252;67279;-55
2023/09/27 00:57:09;;;;;;;24.10;17.50;;;;;;;22.27;82.85;100583.36;109562;1252;71628;-55
2023/09/27 00:59:36;;;;;;;28.60;17.70;;;;;;;22.22;82.72;100579.02;109551;1252;60487;-54
2023/09/27 01:02:03;;;;;;;29.60;20.40;;;;;;;22.20;82.56;100584.06;109621;1252;60121;-55
2023/09/27 01:04:30;;;;;;;29.90;20.70;;;;;;;22.29;82.21;100584.64;109577;1253;74711;-55
2023/09/27 01:06:57;;;;;;;23.90;18.40;;;;;;;22.41;81.49;100585.16;109560;1252;68725;-54
2023/09/27 01:09:24;;;;;;;30.50;20.00;;;;;;;22.38;81.28;100587.64;109582;1252;71542;-54
2023/09/27 01:11:50;;;;;;;28.00;18.40;;;;;;;22.36;81.50;100584.50;109584;1251;61933;-54
2023/09/27 01:14:17;;;;;;;23.00;18.90;;;;;;;22.39;81.02;100582.85;109418;1253;59135;-55
2023/09/27 01:16:44;;;;;;;26.90;20.00;;;;;;;22.37;81.46;100580.48;109584;1252;75101;-54
2023/09/27 01:19:12;;;;;;;22.10;18.40;;;;;;;22.41;81.08;100579.20;109579;1253;68621;-55
2023/09/27 01:21:39;;;;;;;26.70;19.20;;;;;;;22.33;81.56;100580.04;109549;1252;72518;-54
2023/09/27 01:24:06;;;;;;;28.80;21.10;;;;;;;22.24;82.46;100575.70;109691;1250;61672;-54
2023/09/27 01:26:33;;;;;;;27.90;20.30;;;;;;;22.22;82.61;100575.19;109682;1250;58937;-54
2023/09/27 01:29:00;;;;;;;29.10;19.80;;;;;;;22.27;82.25;100580.88;109205;1251;73242;-55
2023/09/27 01:31:27;;;;;;;26.80;20.10;;;;;;;22.28;81.92;100576.38;109692;1250;67512;-55
2023/09/27 01:33:53;;;;;;;35.40;21.10;;;;;;;22.45;80.79;100578.27;109716;1250;71273;-55
2023/09/27 01:36:22;;;;;;;28.10;22.00;;;;;;;22.34;81.52;100575.69;109693;1251;61643;-54
2023/09/27 01:38:48;;;;;;;31.90;23.60;;;;;;;22.09;83.20;100579.21;109739;1251;59057;-54
2023/09/27 01:41:16;;;;;;;27.90;21.00;;;;;;;22.30;82.76;100578.84;109670;1250;73188;-55
2023/09/27 01:43:43;;;;;;;26.10;19.20;;;;;;;22.20;82.86;100579.20;109747;1250;68648;-54
2023/09/27 01:46:10;;;;;;;29.80;19.20;;;;;;;22.12;83.18;100578.17;109714;1250;72526;-54
2023/09/27 01:48:37;;;;;;;31.00;20.20;;;;;;;22.12;83.04;100575.23;109684;1251;61828;-54
2023/09/27 01:51:03;;;;;;;31.40;21.80;;;;;;;22.19;82.84;100574.46;109712;1251;60199;-55
2023/09/27 01:53:30;;;;;;;22.50;18.60;;;;;;;22.28;82.29;100577.20;109713;1250;74464;-54
2023/09/27 01:55:57;;;;;;;39.60;20.00;;;;;;;22.29;82.04;100577.67;109698;1250;68995;-54
2023/09/27 01:58:23;;;;;;;29.50;20.90;;;;;;;22.33;81.92;100579.80;109215;1254;73156;-55
2023/09/27 02:00:50;;;;;;;32.70;21.30;;;;;;;22.24;82.13;100577.34;109413;1251;60718;-55
2023/09/27 02:03:17;;;;;;;28.10;19.40;;;;;;;22.20;82.67;100581.08;109665;1250;60118;-54
2023/09/27 02:05:44;;;;;;;32.60;22.20;;;;;;;22.26;82.10;100581.19;109640;1254;74652;-54
2023/09/27 02:08:11;;;;;;;34.00;22.20;;;;;;;22.39;81.89;100582.70;109698;1250;68950;-54
2023/09/27 02:10:38;;;;;;;30.00;20.50;;;;;;;22.41;81.32;100579.59;109335;1251;72442;-54
2023/09/27 02:13:05;;;;;;;28.80;21.40;;;;;;;22.46;80.48;100581.15;109598;1254;61747;-54
2023/09/27 02:15:31;;;;;;;34.50;22.00;;;;;;;22.50;80.11;100581.63;109653;1252;58918;-54
2023/09/27 02:17:58;;;;;;;26.20;19.20;;;;;;;22.54;80.06;100588.05;109083;1252;74619;-53
2023/09/27 02:20:25;;;;;;;28.50;18.60;;;;;;;22.49;79.49;100584.65;109567;1252;68580;-54
2023/09/27 02:22:53;;;;;;;25.60;17.70;;;;;;;22.32;79.56;100587.01;109258;1252;72357;-54
2023/09/27 02:25:20;;;;;;;;;;;;;;;22.30;79.97;100588.69;109567;1252;61931;-55
2023/09/27 02:27:47;;;;;;;45.20;19.80;;;;;;;22.29;80.03;100587.61;109646;1251;58809;-54
2023/09/27 02:30:14;;;;;;;21.30;17.30;;;;;;;22.09;80.94;100584.64;109403;1253;74663;-55
2023/09/27 02:32:42;;;;;;;41.50;20.20;;;;;;;21.94;82.27;100583.78;109609;1253;68076;-55
2023/09/27 02:35:09;;;;;;;52.40;21.90;;;;;;;22.03;81.95;100583.91;109565;1251;71187;-55
2023/09/27 02:37:36;;;;;;;43.80;23.90;;;;;;;22.10;81.84;100583.13;109568;1252;60871;-54
2023/09/27 02:40:13;;;;;;;36.60;24.00;;;;;;;22.18;82.28;100587.39;109592;1252;60257;-55
2023/09/27 02:42:44;;;;;;;42.70;22.20;;;;;;;22.32;81.89;100587.84;109593;1252;74489;-55
2023/09/27 02:45:11;;;;;;;37.80;23.30;;;;;;;22.37;81.43;100586.02;109572;1252;67293;-54
2023/09/27 02:47:38;;;;;;;43.30;22.60;;;;;;;22.33;81.52;100587.91;109592;1252;71235;-55
2023/09/27 02:50:09;;;;;;;37.00;21.60;;;;;;;22.38;81.07;100589.00;109616;1251;60840;-55
2023/09/27 02:52:38;;;;;;;34.10;21.30;;;;;;;22.37;80.49;100588.11;109508;1252;59102;-55
2023/09/27 02:55:08;;;;;;;38.10;23.70;;;;;;;22.28;80.55;100589.12;109592;1253;74491;-54
2023/09/27 02:57:37;;;;;;;40.20;22.90;;;;;;;22.07;81.95;100592.98;109562;1252;68841;-54
2023/09/27 03:00:06;;;;;;;22.60;17.70;;;;;;;22.01;82.58;100592.17;109515;1254;72610;-54
2023/09/27 03:02:33;;;;;;;28.90;20.70;;;;;;;21.92;82.57;100592.96;109556;1253;61770;-54
2023/09/27 03:05:00;;;;;;;41.60;23.60;;;;;;;22.03;82.03;100594.75;109559;1253;59207;-54
2023/09/27 03:07:27;;;;;;;45.00;21.90;;;;;;;22.09;82.40;100595.30;109648;1255;74742;-54
2023/09/27 03:09:53;;;;;;;41.70;23.30;;;;;;;22.10;82.60;100595.30;109318;1254;67304;-54
2023/09/27 03:12:20;;;;;;;34.90;22.50;;;;;;;22.20;82.45;100594.74;109378;1254;71722;-54
2023/09/27 03:14:47;;;;;;;31.60;21.10;;;;;;;22.35;81.66;100594.83;109372;1256;60546;-54
2023/09/27 03:17:13;;;;;;;34.40;23.10;;;;;;;22.45;80.90;100595.85;109086;1255;60129;-54
2023/09/27 03:19:40;;;;;;;51.90;22.60;;;;;;;22.38;81.15;100591.54;109262;1255;73338;-54
2023/09/27 03:22:07;;;;;;;54.20;19.90;;;;;;;22.35;80.35;100591.80;109226;1254;67322;-53
2023/09/27 03:24:34;;;;;;;34.70;20.40;;;;;;;22.30;79.77;100594.86;108959;1257;72788;-54
2023/09/27 03:27:02;;;;;;;31.10;21.10;;;;;;;22.29;80.01;100590.80;109386;1254;61727;-53
2023/09/27 03:29:31;;;;;;;25.70;18.70;;;;;;;22.22;79.96;100589.52;109292;1254;60195;-54
2023/09/27 03:31:59;;;;;;;;;;;;;;;22.18;80.04;100589.97;109355;1255;73029;-53
2023/09/27 03:34:25;;;;;;;20.10;16.60;;;;;;;22.15;79.97;100593.53;109262;1254;68541;-54
2023/09/27 03:36:56;;;;;;;26.10;19.00;;;;;;;21.99;80.67;100592.38;109370;1254;72488;-54
2023/09/27 03:39:22;;;;;;;23.40;17.80;;;;;;;22.00;80.44;100592.41;109296;1254;60400;-54
2023/09/27 03:41:52;;;;;;;38.30;19.90;;;;;;;21.95;80.95;100594.09;109711;1251;58984;-54
2023/09/27 03:44:18;;;;;;;28.00;18.60;;;;;;;21.96;81.45;100592.26;109641;1251;74489;-54
2023/09/27 03:46:46;;;;;;;27.30;19.10;;;;;;;21.77;82.91;100589.10;109374;1251;68756;-53
2023/09/27 03:49:13;;;;;;;32.40;22.30;;;;;;;21.60;83.96;100587.48;109647;1251;72725;-54
2023/09/27 03:51:40;;;;;;;30.00;19.30;;;;;;;21.34;86.18;100585.42;109644;1251;61040;-54
2023/09/27 03:54:07;;;;;;;38.20;20.10;;;;;;;21.21;86.55;100592.23;109724;1251;58884;-56
2023/09/27 03:56:33;;;;;;;27.10;18.00;;;;;;;21.27;86.24;100592.19;109425;1251;72557;-54
2023/09/27 03:59:00;;;;;;;31.90;20.60;;;;;;;21.12;87.47;100594.67;109748;1250;68555;-55
2023/09/27 04:01:27;;;;;;;31.50;23.10;;;;;;;21.17;87.45;100593.30;109724;1251;72708;-54
2023/09/27 04:03:53;;;;;;;28.50;20.80;;;;;;;21.21;87.31;100593.71;109696;1250;60470;-54
2023/09/27 04:06:20;;;;;;;27.70;21.00;;;;;;;21.21;87.59;100593.50;109642;1251;58865;-57
2023/09/27 04:08:47;;;;;;;27.50;20.20;;;;;;;21.22;86.98;100591.80;109625;1251;74708;-54
2023/09/27 04:11:14;;;;;;;28.90;19.40;;;;;;;21.10;87.35;100591.27;109742;1251;68406;-53
2023/09/27 04:13:43;;;;;;;29.70;20.90;;;;;;;20.99;87.94;100591.79;109653;1253;71213;-54
2023/09/27 04:16:09;;;;;;;35.00;18.10;;;;;;;21.04;87.96;100594.06;109603;1251;60493;-54
2023/09/27 04:18:36;;;;;;;25.10;18.50;;;;;;;20.97;88.26;100596.34;109612;1252;60126;-55
2023/09/27 04:21:09;;;;;;;23.50;16.80;;;;;;;20.99;88.28;100598.16;109633;1251;73414;-54
2023/09/27 04:23:36;;;;;;;25.50;18.70;;;;;;;20.93;88.36;100600.90;109576;1252;68667;-54
2023/09/27 04:26:05;;;;;;;28.70;18.50;;;;;;;21.00;88.42;100599.41;109579;1252;72523;-53
2023/09/27 04:28:33;;;;;;;31.60;20.50;;;;;;;21.15;88.06;100602.00;109580;1252;60771;-56
2023/09/27 04:31:00;;;;;;;23.40;17.90;;;;;;;21.24;87.57;100608.73;109511;1251;102207;-55
2023/09/27 04:33:27;;;;;;;27.50;18.40;;;;;;;21.17;87.66;100607.42;109621;1252;73247;-54
2023/09/27 04:35:53;;;;;;;31.40;20.70;;;;;;;21.17;88.11;100607.86;109242;1253;68557;-54
2023/09/27 04:38:21;;;;;;;24.00;17.90;;;;;;;21.26;87.62;100611.60;109592;1251;70444;-54
2023/09/27 04:40:47;;;;;;;25.90;18.80;;;;;;;21.24;87.32;100610.33;109609;1252;60569;-52
2023/09/27 04:43:14;;;;;;;31.10;19.50;;;;;;;21.29;87.40;100609.68;109604;1251;59046;-55
2023/09/27 04:45:41;;;;;;;27.70;19.20;;;;;;;21.52;86.70;100614.20;109618;1252;74468;-54
2023/09/27 04:48:08;;;;;;;35.60;22.00;;;;;;;21.67;85.89;100612.30;109610;1252;68545;-55
2023/09/27 04:50:35;;;;;;;27.70;20.00;;;;;;;21.60;85.89;100612.66;109606;1253;71541;-54
2023/09/27 04:53:01;;;;;;;25.10;18.60;;;;;;;21.44;85.97;100610.48;109212;1252;60945;-56
2023/09/27 04:55:28;;;;;;;24.30;17.10;;;;;;;21.53;85.12;100616.11;109550;1254;59066;-54
2023/09/27 04:57:55;;;;;;;28.10;20.40;;;;;;;21.52;85.40;100615.48;109596;1253;73287;-55
2023/09/27 05:00:22;;;;;;;26.10;17.00;;;;;;;21.40;86.60;100613.71;109587;1253;68605;-53
2023/09/27 05:02:51;;;;;;;32.20;18.20;;;;;;;21.31;86.17;100615.92;109640;1251;72620;-54
2023/09/27 05:05:18;;;;;;;30.00;16.60;;;;;;;21.28;85.91;100618.15;109434;1253;60682;-55
2023/09/27 05:07:45;;;;;;;29.10;16.40;;;;;;;21.19;86.29;100615.59;109546;1253;60317;-53
2023/09/27 05:10:12;;;;;;;36.50;17.10;;;;;;;21.10;86.27;100616.30;109607;1252;73869;-53
2023/09/27 05:12:39;;;;;;;24.90;16.80;;;;;;;21.15;85.63;100620.50;109601;1253;68716;-54
2023/09/27 05:15:09;;;;;;;23.80;15.90;;;;;;;21.18;85.79;100617.63;109439;1254;72511;-54
2023/09/27 05:17:35;;;;;;;18.60;15.50;;;;;;;21.24;84.70;100615.66;109553;1251;60483;-54
2023/09/27 05:20:10;;;;;;;29.50;16.30;;;;;;;21.31;84.36;100620.57;109681;1250;59016;-54
2023/09/27 05:22:37;;;;;;;23.00;15.50;;;;;;;21.51;84.03;100620.99;109559;1251;73483;-54
2023/09/27 05:25:05;;;;;;;27.10;18.10;;;;;;;21.62;83.36;100624.30;109619;1253;68562;-54
2023/09/27 05:27:34;;;;;;;23.10;16.10;;;;;;;21.87;82.71;100623.77;109592;1252;72788;-54
2023/09/27 05:30:01;;;;;;;23.40;15.50;;;;;;;21.93;81.23;100629.02;109531;1252;60730;-55
2023/09/27 05:32:27;;;;;;;24.40;18.10;;;;;;;21.79;81.06;100623.61;109584;1253;59431;-54
2023/09/27 05:34:54;;;;;;;31.10;21.30;;;;;;;21.72;82.24;100627.58;109553;1253;74683;-55
2023/09/27 05:37:21;;;;;;;21.00;17.30;;;;;;;21.77;82.09;100627.15;109578;1252;68432;-55
2023/09/27 05:39:48;;;;;;;40.60;27.60;;;;;;;21.81;81.50;100626.72;109558;1251;72707;-54
2023/09/27 05:42:14;;;;;;;46.80;26.90;;;;;;;21.82;82.00;100627.09;109565;1252;61783;-54
2023/09/27 05:44:41;;;;;;;37.80;22.50;;;;;;;21.91;83.36;100629.88;109588;1251;59995;-55
2023/09/27 05:47:08;;;;;;;31.40;21.30;;;;;;;22.00;83.73;100632.86;109614;1252;73106;-55
2023/09/27 05:49:35;;;;;;;47.10;18.00;;;;;;;22.17;82.10;100636.08;109427;1253;67220;-54
2023/09/27 05:52:02;;;;;;;31.00;19.30;;;;;;;22.08;81.59;100634.30;109401;1253;72433;-55
2023/09/27 05:54:29;;;;;;;25.20;19.00;;;;;;;22.35;81.39;100639.05;109639;1253;62253;-54
2023/09/27 05:56:56;;;;;;;22.40;17.50;;;;;;;22.39;80.69;100639.52;109411;1253;59307;-53
2023/09/27 05:59:25;;;;;;;21.70;16.60;;;;;;;22.47;79.10;100639.46;109644;1253;74522;-54
2023/09/27 06:01:52;;;;;;;21.90;16.70;;;;;;;22.41;78.35;100637.61;109619;1253;68878;-54
2023/09/27 06:04:22;;;;;;;25.40;16.40;;;;;;;22.32;78.79;100638.70;109634;1252;72582;-55
2023/09/27 06:06:49;;;;;;;41.90;18.70;;;;;;;22.71;76.87;100639.37;109281;1253;61788;-55
2023/09/27 06:09:16;;;;;;;25.20;17.40;;;;;;;22.71;75.66;100636.21;109631;1253;59326;-54
2023/09/27 06:11:43;;;;;;;25.30;18.20;;;;;;;22.80;75.33;100641.19;109647;1253;74491;-54
2023/09/27 06:14:10;;;;;;;24.70;17.20;;;;;;;22.65;75.92;100642.14;109432;1252;67430;-54
2023/09/27 06:16:38;;;;;;;20.50;15.50;;;;;;;22.63;76.03;100639.59;109603;1253;71210;-53
2023/09/27 06:19:05;;;;;;;21.40;16.60;;;;;;;22.65;74.83;100645.63;109507;1252;60521;-54
2023/09/27 06:21:32;;;;;;;22.50;16.40;;;;;;;22.59;75.35;100643.16;109592;1251;59501;-55
2023/09/27 06:23:59;;;;;;;32.60;17.60;;;;;;;22.58;75.07;100647.93;109699;1251;74961;-55
2023/09/27 06:26:26;;;;;;;24.50;16.40;;;;;;;22.56;75.59;100645.67;109753;1251;68560;-54
2023/09/27 06:28:53;;;;;;;26.90;16.90;;;;;;;22.59;75.38;100648.88;109725;1250;71387;-54
2023/09/27 06:31:21;;;;;;;22.50;15.70;;;;;;;22.52;74.97;100646.91;109696;1251;60734;-54
2023/09/27 06:33:49;;;;;;;21.90;16.50;;;;;;;22.45;74.19;100647.66;109407;1252;60754;-54
2023/09/27 06:36:16;;;;;;;29.80;21.10;;;;;;;22.63;74.62;100647.25;109615;1254;74483;-54
2023/09/27 06:38:42;;;;;;;29.80;19.70;;;;;;;22.78;74.25;100653.82;109412;1252;67694;-55
2023/09/27 06:41:11;;;;;;;29.80;20.10;;;;;;;22.76;72.82;100659.40;109382;1253;71439;-54
2023/09/27 06:43:38;;;;;;;32.30;20.60;;;;;;;22.55;72.61;100659.42;109540;1251;60244;-55
2023/09/27 06:46:10;;;;;;;33.30;22.10;;;;;;;22.46;73.14;100661.86;109572;1253;58952;-55
2023/09/27 06:48:37;;;;;;;43.70;24.60;;;;;;;22.49;73.61;100663.60;109585;1253;74751;-56
2023/09/27 06:51:05;;;;;;;45.60;24.30;;;;;;;22.54;73.30;100663.87;109571;1255;67796;-54
2023/09/27 06:53:32;;;;;;;45.00;26.20;;;;;;;22.46;74.23;100667.16;109637;1251;72504;-54
2023/09/27 06:56:00;;;;;;;44.30;24.40;;;;;;;22.76;74.15;100665.04;109576;1253;61610;-54
2023/09/27 06:58:27;;;;;;;30.00;20.00;;;;;;;23.02;72.47;100668.02;109332;1252;59098;-55
2023/09/27 07:00:54;;;;;;;24.80;17.00;;;;;;;23.29;71.60;100667.92;109632;1253;73457;-54
2023/09/27 07:03:24;;;;;;;19.70;16.00;;;;;;;23.24;70.18;100671.30;109391;1253;69924;-55
2023/09/27 07:05:51;;;;;;;20.70;16.40;;;;;;;23.11;70.74;100674.76;109569;1253;71530;-55
2023/09/27 07:08:18;;;;;;;21.10;16.30;;;;;;;23.01;71.12;100679.23;109597;1252;61612;-55
2023/09/27 07:10:45;;;;;;;21.70;16.50;;;;;;;23.20;70.16;100678.05;109554;1253;60083;-54
2023/09/27 07:13:12;;;;;;;18.70;14.10;;;;;;;23.30;69.64;100676.87;109604;1252;74441;-55
2023/09/27 07:15:38;;;;;;;17.70;14.20;;;;;;;23.28;69.24;100681.80;109383;1253;67540;-54
2023/09/27 07:18:05;;;;;;;16.80;14.20;;;;;;;23.45;69.41;100679.30;109534;1253;72431;-54
2023/09/27 07:20:34;;;;;;;21.00;14.80;;;;;;;23.62;69.55;100679.69;109209;1252;61902;-55
2023/09/27 07:23:04;;;;;;;22.10;14.70;;;;;;;23.86;67.93;100675.17;109566;1254;59009;-55
2023/09/27 07:25:34;;;;;;;21.80;14.70;;;;;;;24.04;67.24;100678.86;109518;1253;73364;-55
2023/09/27 07:28:03;;;;;;;18.40;13.80;;;;;;;24.26;66.76;100680.09;109587;1253;68771;-55
2023/09/27 07:30:30;;;;;;;19.50;13.10;;;;;;;24.31;64.98;100680.98;109509;1252;71411;-55
2023/09/27 07:32:56;;;;;;;18.90;13.40;;;;;;;24.10;65.45;100682.44;109506;1253;61779;-56
2023/09/27 07:35:27;;;;;;;17.00;12.70;;;;;;;24.09;65.87;100685.14;109501;1253;60542;-55
2023/09/27 07:37:54;;;;;;;19.20;12.60;;;;;;;24.14;65.45;100686.70;109539;1253;74641;-55
2023/09/27 07:40:21;;;;;;;15.80;10.70;;;;;;;23.86;66.51;100688.08;109561;1253;67442;-56
2023/09/27 07:42:48;;;;;;;16.80;11.20;;;;;;;24.07;65.10;100689.85;109539;1254;71481;-55
2023/09/27 07:45:21;;;;;;;15.00;11.60;;;;;;;24.07;64.16;100694.75;109396;1253;60598;-55
2023/09/27 07:47:52;;;;;;;14.20;10.80;;;;;;;23.94;64.51;100696.63;109540;1254;58918;-55
2023/09/27 07:50:19;;;;;;;17.60;10.80;;;;;;;23.77;65.08;100698.02;109609;1253;75240;-55
2023/09/27 07:52:47;;;;;;;21.60;12.00;;;;;;;23.95;64.66;100697.80;109532;1253;68826;-55
2023/09/27 07:55:14;;;;;;;16.80;11.00;;;;;;;23.75;66.01;100697.33;109490;1253;72380;-56
2023/09/27 07:57:43;;;;;;;15.70;12.40;;;;;;;23.97;65.42;100696.65;109461;1253;61084;-55
2023/09/27 08:00:15;;;;;;;20.00;11.30;;;;;;;24.02;65.47;100697.98;109502;1254;59629;-56
2023/09/27 08:02:43;;;;;;;13.70;11.30;;;;;;;24.09;64.36;100698.30;109571;1254;74676;-55
2023/09/27 08:05:10;;;;;;;18.30;11.50;;;;;;;23.86;64.55;100699.76;109538;1252;67577;-55
2023/09/27 08:07:37;;;;;;;16.40;12.50;;;;;;;23.97;65.49;100699.23;109566;1253;72431;-56
2023/09/27 08:10:05;;;;;;;15.10;13.10;;;;;;;24.34;63.42;100699.19;109478;1252;61783;-56
2023/09/27 08:12:47;;;;;;;14.80;12.10;;;;;;;24.26;63.61;100698.52;109457;1254;60553;-55
2023/09/27 08:15:14;;;;;;;16.70;12.20;;;;;;;24.46;63.32;100693.13;109548;1254;74480;-55
2023/09/27 08:17:42;;;;;;;13.90;11.50;;;;;;;24.92;61.30;100697.58;109619;1251;67564;-56
2023/09/27 08:20:11;;;;;;;15.10;13.40;;;;;;;25.10;59.62;100694.83;109651;1251;72416;-58
2023/09/27 08:22:39;;;;;;;16.70;12.60;;;;;;;25.21;59.33;100691.90;109260;1253;61913;-55
2023/09/27 08:25:14;;;;;;;15.20;12.60;;;;;;;25.28;59.18;100692.45;109627;1251;60034;-55
2023/09/27 08:27:42;;;;;;;19.40;13.10;;;;;;;25.78;56.88;100691.32;109825;1251;74845;-55
2023/09/27 08:30:09;;;;;;;13.60;11.10;;;;;;;26.02;55.76;100693.73;109767;1251;67657;-55
2023/09/27 08:32:38;;;;;;;13.70;11.70;;;;;;;26.69;53.51;100692.14;109781;1251;71580;-55
2023/09/27 08:35:06;;;;;;;19.30;11.60;;;;;;;27.06;51.54;100694.84;109727;1251;60675;-55
2023/09/27 08:37:33;;;;;;;15.50;11.60;;;;;;;27.78;49.52;100696.58;109724;1251;58964;-54
2023/09/27 08:40:01;;;;;;;13.30;10.50;;;;;;;28.35;47.95;100694.66;109537;1252;73135;-55
2023/09/27 08:42:28;;;;;;;15.70;10.20;;;;;;;28.40;47.16;100687.56;109318;1251;68849;-56
2023/09/27 08:44:55;;;;;;;9.10;8.20;;;;;;;28.58;45.94;100690.98;109460;1250;72447;-55
2023/09/27 08:47:22;;;;;;;12.60;9.70;;;;;;;28.58;45.31;100692.46;109587;1251;60503;-56
2023/09/27 08:49:49;;;;;;;11.50;8.80;;;;;;;28.55;45.25;100689.46;109404;1251;60782;-55
2023/09/27 08:52:16;;;;;;;13.90;10.60;;;;;;;28.57;44.96;100686.46;109644;1251;74638;-56
2023/09/27 08:54:43;;;;;;;17.70;10.50;;;;;;;28.74;45.04;100684.28;109800;1250;68399;-56
2023/09/27 08:57:10;;;;;;;10.80;9.70;;;;;;;28.92;44.17;100679.04;109590;1251;71763;-55
2023/09/27 08:59:38;;;;;;;27.50;11.60;;;;;;;29.14;43.78;100682.31;109604;1251;62007;-56
2023/09/27 09:02:05;;;;;;;12.60;9.60;;;;;;;29.25;43.78;100681.98;109446;1251;60270;-56
2023/09/27 09:04:36;;;;;;;15.80;10.50;;;;;;;29.30;43.37;100688.67;109719;1251;74711;-56
2023/09/27 09:07:03;;;;;;;13.80;10.00;;;;;;;29.99;42.92;100685.80;109758;1251;68427;-56
2023/09/27 09:09:30;;;;;;;12.60;8.50;;;;;;;30.71;41.38;100692.16;109313;1251;71488;-56
2023/09/27 09:12:00;;;;;;;14.00;9.70;;;;;;;30.32;41.29;100690.39;109416;1251;59093;-56
2023/09/27 09:14:42;;;;;;;33.10;9.20;;;;;;;30.46;41.09;100690.48;109643;1251;59195;-56
2023/09/27 09:17:17;;;;;;;12.90;7.50;;;;;;;30.47;40.56;100684.89;109719;1251;74610;-56
2023/09/27 09:20:02;;;;;;;12.80;9.60;;;;;;;30.00;41.12;100686.46;109592;1254;68777;-56
2023/09/27 09:22:33;;;;;;;13.30;8.00;;;;;;;30.56;40.73;100682.80;109573;1253;70854;-56
2023/09/27 09:25:02;;;;;;;17.10;8.10;;;;;;;30.74;40.03;100680.89;109332;1252;59026;-56
2023/09/27 09:27:30;;;;;;;12.10;7.20;;;;;;;30.66;40.43;100677.02;109555;1252;59160;-56
2023/09/27 09:29:57;;;;;;;10.00;7.80;;;;;;;30.94;40.00;100675.27;109374;1254;74943;-55
2023/09/27 09:32:25;;;;;;;9.80;7.10;;;;;;;31.12;39.51;100673.40;109546;1252;70385;-56
2023/09/27 09:34:55;;;;;;;10.20;7.00;;;;;;;30.86;39.80;100663.67;109512;1252;71376;-55
2023/09/27 09:37:23;;;;;;;18.10;7.70;;;;;;;30.83;40.08;100662.66;109559;1253;59140;-55
2023/09/27 09:39:51;;;;;;;11.30;7.80;;;;;;;31.36;39.36;100662.50;109518;1254;59021;-55
2023/09/27 09:42:36;;;;;;;9.70;6.70;;;;;;;31.40;39.04;100662.83;109409;1253;67437;-55
2023/09/27 09:45:07;;;;;;;7.20;6.10;;;;;;;31.01;39.31;100659.40;109193;1251;68529;-55
2023/09/27 09:47:36;;;;;;;7.50;6.70;;;;;;;31.27;39.07;100658.87;109613;1251;72570;-55
2023/09/27 09:50:08;;;;;;;10.60;6.40;;;;;;;31.30;38.67;100656.61;109500;1254;60104;-55
2023/09/27 09:52:38;;;;;;;23.20;8.50;;;;;;;31.39;38.66;100655.45;109445;1251;58982;-55
2023/09/27 09:55:06;;;;;;;9.20;6.20;;;;;;;31.44;37.85;100658.56;109305;1254;66083;-55
2023/09/27 09:58:14;;;;;;;10.30;6.20;;;;;;;31.60;37.93;100656.15;109448;1253;67801;-55
2023/09/27 10:00:42;;;;;;;7.80;6.10;;;;;;;31.42;38.06;100655.27;109020;1260;63875;-55
2023/09/27 10:03:09;;;;;;;10.00;6.60;;;;;;;31.31;38.28;100655.52;109016;1259;59703;-55
2023/09/27 10:05:37;;;;;;;15.40;7.70;;;;;;;31.46;38.44;100648.77;108896;1260;59026;-55
2023/09/27 10:08:07;;;;;;;7.40;6.30;;;;;;;31.54;37.95;100647.08;108962;1260;74538;-55
2023/09/27 10:10:34;;;;;;;12.60;6.80;;;;;;;31.33;37.76;100648.27;109053;1258;60022;-55
2023/09/27 10:13:04;;;;;;;12.90;6.90;;;;;;;31.39;38.09;100644.41;109030;1260;72231;-55
2023/09/27 10:15:34;;;;;;;14.00;6.70;;;;;;;31.87;37.61;100646.93;108967;1260;59023;-54
2023/09/27 10:18:22;;;;;;;13.50;6.90;;;;;;;32.15;37.11;100642.86;108929;1260;58957;-54
2023/09/27 10:21:01;;;;;;;10.80;6.40;;;;;;;32.10;36.63;100640.66;109056;1260;65840;-56
2023/09/27 10:23:35;;;;;;;13.20;7.00;;;;;;;32.28;36.78;100638.67;109011;1259;59077;-55
2023/09/27 10:26:27;;;;;;;10.80;6.80;;;;;;;32.42;36.28;100636.50;108970;1260;64000;-56
2023/09/27 10:29:16;;;;;;;11.20;7.30;;;;;;;32.25;36.22;100642.85;108964;1260;58997;-55
2023/09/27 10:31:58;;;;;;;7.30;5.90;;;;;;;32.41;36.01;100644.51;108777;1259;59080;-55
2023/09/27 10:34:25;;;;;;;8.60;5.70;;;;;;;32.86;35.53;100640.48;108990;1259;65866;-56
2023/09/27 10:36:53;;;;;;;8.30;6.40;;;;;;;32.97;35.24;100638.73;109014;1253;59118;-56
2023/09/27 10:39:39;;;;;;;10.70;7.00;;;;;;;33.11;35.01;100639.43;109505;1253;63965;-56
2023/09/27 10:42:06;;;;;;;14.80;6.20;;;;;;;32.92;34.81;100634.91;109518;1253;58946;-56
2023/09/27 10:44:33;;;;;;;14.10;6.10;;;;;;;32.92;34.79;100627.21;109199;1253;59111;-56
2023/09/27 10:47:03;;;;;;;;;;;;;;;33.26;34.63;100628.63;109546;1254;64425;-55
2023/09/27 10:49:41;;;;;;;12.40;6.40;;;;;;;33.34;34.07;100628.63;109517;1254;60061;-55
2023/09/27 10:52:15;;;;;;;9.70;5.50;;;;;;;33.36;34.13;100627.05;109539;1252;64043;-54
2023/09/27 10:54:42;;;;;;;7.50;6.00;;;;;;;33.46;33.53;100627.94;109286;1252;59031;-55
2023/09/27 10:57:09;;;;;;;10.30;5.80;;;;;;;33.39;33.84;100623.12;109561;1253;58945;-55
2023/09/27 10:59:35;;;;;;;14.00;6.00;;;;;;;33.25;34.40;100614.72;109558;1253;65684;-54
2023/09/27 11:02:03;;;;;;;14.40;5.60;;;;;;;33.25;33.70;100611.78;109371;1254;59046;-54
2023/09/27 11:04:32;;;;;;;8.60;5.20;;;;;;;33.41;33.91;100610.17;109567;1252;63791;-55
2023/09/27 11:06:59;;;;;;;6.10;5.30;;;;;;;33.34;33.54;100609.55;109534;1253;58976;-55
2023/09/27 11:09:27;;;;;;;13.70;7.30;;;;;;;32.83;33.53;100607.18;109552;1252;59782;-56